Terminal Aerodrome Forecast
Issued by NWS

Home | Current Version | Previous Version | Graphics & Text | Print | Product List | Glossary On
Versions: 1 2 3 4 5 6 7 8 9 10 11 12 13 14 15 16 17 18 19 20 21 22 23 24 25 26 27
000
FTUS43 KLSX 162329
TAFSUS
TAF
KSUS 162329Z 1700/1724 01004KT P6SM FEW250
     FM170900 14004KT P6SM BKN120
     FM171500 18006KT P6SM VCSH OVC035
     FM171800 20007KT P6SM OVC015
     FM172200 24008KT P6SM BKN070=

USA.gov is the U.S. government's official web portal to all federal, state and local government web resources and services.